sensor_id;sensor_type;location;lat;lon;timestamp;temperature;humidity
2935;DHT22;2462;51.456;7.248;2022-08-21T00:02:20;19.70;99.90
2935;DHT22;2462;51.456;7.248;2022-08-21T00:04:47;19.60;99.90
2935;DHT22;2462;51.456;7.248;2022-08-21T00:07:13;19.60;99.90
2935;DHT22;2462;51.456;7.248;2022-08-21T00:09:39;19.60;99.90
2935;DHT22;2462;51.456;7.248;2022-08-21T00:12:04;19.60;99.90
2935;DHT22;2462;51.456;7.248;2022-08-21T00:14:31;19.60;99.90
2935;DHT22;2462;51.456;7.248;2022-08-21T00:16:56;19.60;99.90
2935;DHT22;2462;51.456;7.248;2022-08-21T00:19:23;19.60;99.90
2935;DHT22;2462;51.456;7.248;2022-08-21T00:21:53;19.50;99.90
2935;DHT22;2462;51.456;7.248;2022-08-21T00:24:20;19.50;99.90
2935;DHT22;2462;51.456;7.248;2022-08-21T00:26:46;19.50;99.90
2935;DHT22;2462;51.456;7.248;2022-08-21T00:29:13;19.50;99.90
2935;DHT22;2462;51.456;7.248;2022-08-21T00:31:39;19.50;99.90
2935;DHT22;2462;51.456;7.248;2022-08-21T00:34:05;19.50;99.90
2935;DHT22;2462;51.456;7.248;2022-08-21T00:36:32;19.50;99.90
2935;DHT22;2462;51.456;7.248;2022-08-21T00:38:58;19.50;99.90
2935;DHT22;2462;51.456;7.248;2022-08-21T00:41:24;19.50;99.90
2935;DHT22;2462;51.456;7.248;2022-08-21T00:43:50;19.50;99.90
2935;DHT22;2462;51.456;7.248;2022-08-21T00:46:17;19.50;99.90
2935;DHT22;2462;51.456;7.248;2022-08-21T00:48:42;19.40;99.90
2935;DHT22;2462;51.456;7.248;2022-08-21T00:51:12;19.40;99.90
2935;DHT22;2462;51.456;7.248;2022-08-21T00:53:42;19.40;99.90
2935;DHT22;2462;51.456;7.248;2022-08-21T00:56:10;19.40;99.90
2935;DHT22;2462;51.456;7.248;2022-08-21T00:58:37;19.40;99.90
2935;DHT22;2462;51.456;7.248;2022-08-21T01:01:06;19.40;99.90
2935;DHT22;2462;51.456;7.248;2022-08-21T01:03:32;19.40;99.90
2935;DHT22;2462;51.456;7.248;2022-08-21T01:05:58;19.40;99.90
2935;DHT22;2462;51.456;7.248;2022-08-21T01:08:25;19.30;99.90
2935;DHT22;2462;51.456;7.248;2022-08-21T01:10:52;19.30;99.90
2935;DHT22;2462;51.456;7.248;2022-08-21T01:13:19;19.30;99.90
2935;DHT22;2462;51.456;7.248;2022-08-21T01:15:48;19.30;99.90
2935;DHT22;2462;51.456;7.248;2022-08-21T01:18:16;19.30;99.90
2935;DHT22;2462;51.456;7.248;2022-08-21T01:20:45;19.30;99.90
2935;DHT22;2462;51.456;7.248;2022-08-21T01:23:11;19.30;99.90
2935;DHT22;2462;51.456;7.248;2022-08-21T01:25:37;19.30;99.90
2935;DHT22;2462;51.456;7.248;2022-08-21T01:28:13;19.30;99.90
2935;DHT22;2462;51.456;7.248;2022-08-21T01:30:43;19.20;99.90
2935;DHT22;2462;51.456;7.248;2022-08-21T01:33:10;19.20;99.90
2935;DHT22;2462;51.456;7.248;2022-08-21T01:35:35;19.20;99.90
2935;DHT22;2462;51.456;7.248;2022-08-21T01:38:01;19.20;99.90
2935;DHT22;2462;51.456;7.248;2022-08-21T01:40:27;19.20;99.90
2935;DHT22;2462;51.456;7.248;2022-08-21T01:42:53;19.20;99.90
2935;DHT22;2462;51.456;7.248;2022-08-21T01:45:18;19.20;99.90
2935;DHT22;2462;51.456;7.248;2022-08-21T01:47:44;19.20;99.90
2935;DHT22;2462;51.456;7.248;2022-08-21T01:50:13;19.10;99.90
2935;DHT22;2462;51.456;7.248;2022-08-21T01:52:39;19.10;99.90
2935;DHT22;2462;51.456;7.248;2022-08-21T01:55:06;19.10;99.90
2935;DHT22;2462;51.456;7.248;2022-08-21T01:57:33;19.10;99.90
2935;DHT22;2462;51.456;7.248;2022-08-21T01:59:59;19.10;99.90
2935;DHT22;2462;51.456;7.248;2022-08-21T02:02:25;19.10;99.90
2935;DHT22;2462;51.456;7.248;2022-08-21T02:04:51;19.00;99.90
2935;DHT22;2462;51.456;7.248;2022-08-21T02:07:16;19.00;99.90
2935;DHT22;2462;51.456;7.248;2022-08-21T02:09:42;19.00;99.90
2935;DHT22;2462;51.456;7.248;2022-08-21T02:12:10;19.00;99.90
2935;DHT22;2462;51.456;7.248;2022-08-21T02:14:36;19.00;99.90
2935;DHT22;2462;51.456;7.248;2022-08-21T02:17:01;19.00;99.90
2935;DHT22;2462;51.456;7.248;2022-08-21T02:19:27;19.00;99.90
2935;DHT22;2462;51.456;7.248;2022-08-21T02:21:53;18.90;99.90
2935;DHT22;2462;51.456;7.248;2022-08-21T02:24:18;18.90;99.90
2935;DHT22;2462;51.456;7.248;2022-08-21T02:26:44;18.90;99.90
2935;DHT22;2462;51.456;7.248;2022-08-21T02:29:09;18.80;99.90
2935;DHT22;2462;51.456;7.248;2022-08-21T02:31:35;18.80;99.90
2935;DHT22;2462;51.456;7.248;2022-08-21T02:34:01;18.80;99.90
2935;DHT22;2462;51.456;7.248;2022-08-21T02:36:26;18.80;99.90
2935;DHT22;2462;51.456;7.248;2022-08-21T02:38:52;18.90;99.90
2935;DHT22;2462;51.456;7.248;2022-08-21T02:41:20;18.60;99.90
2935;DHT22;2462;51.456;7.248;2022-08-21T02:43:47;18.70;99.90
2935;DHT22;2462;51.456;7.248;2022-08-21T02:46:15;18.70;99.90
2935;DHT22;2462;51.456;7.248;2022-08-21T02:48:40;18.70;99.90
2935;DHT22;2462;51.456;7.248;2022-08-21T02:51:15;18.60;99.90
2935;DHT22;2462;51.456;7.248;2022-08-21T02:53:42;18.60;99.90
2935;DHT22;2462;51.456;7.248;2022-08-21T02:56:10;18.60;99.90
2935;DHT22;2462;51.456;7.248;2022-08-21T02:58:40;18.60;99.90
2935;DHT22;2462;51.456;7.248;2022-08-21T03:01:07;18.60;99.90
2935;DHT22;2462;51.456;7.248;2022-08-21T03:03:35;18.60;99.90
2935;DHT22;2462;51.456;7.248;2022-08-21T03:06:01;18.50;99.90
2935;DHT22;2462;51.456;7.248;2022-08-21T03:08:26;18.50;99.90
2935;DHT22;2462;51.456;7.248;2022-08-21T03:10:52;18.50;99.90
2935;DHT22;2462;51.456;7.248;2022-08-21T03:13:22;18.50;99.90
2935;DHT22;2462;51.456;7.248;2022-08-21T03:15:49;18.50;99.90
2935;DHT22;2462;51.456;7.248;2022-08-21T03:18:15;18.50;99.90
2935;DHT22;2462;51.456;7.248;2022-08-21T03:20:42;18.40;99.90
2935;DHT22;2462;51.456;7.248;2022-08-21T03:23:08;18.40;99.90
2935;DHT22;2462;51.456;7.248;2022-08-21T03:25:35;18.40;99.90
2935;DHT22;2462;51.456;7.248;2022-08-21T03:28:02;18.40;99.90
2935;DHT22;2462;51.456;7.248;2022-08-21T03:30:29;18.40;99.90
2935;DHT22;2462;51.456;7.248;2022-08-21T03:32:56;18.40;99.90
2935;DHT22;2462;51.456;7.248;2022-08-21T03:35:22;18.40;99.90
2935;DHT22;2462;51.456;7.248;2022-08-21T03:37:48;18.30;99.90
2935;DHT22;2462;51.456;7.248;2022-08-21T03:40:16;18.30;99.90
2935;DHT22;2462;51.456;7.248;2022-08-21T03:42:41;18.30;99.90
2935;DHT22;2462;51.456;7.248;2022-08-21T03:45:08;18.30;99.90
2935;DHT22;2462;51.456;7.248;2022-08-21T03:47:34;18.30;99.90
2935;DHT22;2462;51.456;7.248;2022-08-21T03:50:00;18.30;99.90
2935;DHT22;2462;51.456;7.248;2022-08-21T03:52:26;18.30;99.90
2935;DHT22;2462;51.456;7.248;2022-08-21T03:54:51;18.20;99.90
2935;DHT22;2462;51.456;7.248;2022-08-21T03:57:17;18.20;99.90
2935;DHT22;2462;51.456;7.248;2022-08-21T03:59:43;18.20;99.90
2935;DHT22;2462;51.456;7.248;2022-08-21T04:02:10;18.20;99.90
2935;DHT22;2462;51.456;7.248;2022-08-21T04:04:36;18.20;99.90
2935;DHT22;2462;51.456;7.248;2022-08-21T04:07:03;18.30;99.90
2935;DHT22;2462;51.456;7.248;2022-08-21T04:09:28;18.20;99.90
2935;DHT22;2462;51.456;7.248;2022-08-21T04:11:55;18.20;99.90
2935;DHT22;2462;51.456;7.248;2022-08-21T04:14:21;18.20;99.90
2935;DHT22;2462;51.456;7.248;2022-08-21T04:16:47;18.10;99.90
2935;DHT22;2462;51.456;7.248;2022-08-21T04:19:13;18.10;99.90
2935;DHT22;2462;51.456;7.248;2022-08-21T04:21:40;18.10;99.90
2935;DHT22;2462;51.456;7.248;2022-08-21T04:24:07;18.10;99.90
2935;DHT22;2462;51.456;7.248;2022-08-21T04:26:36;18.10;99.90
2935;DHT22;2462;51.456;7.248;2022-08-21T04:29:02;18.10;99.90
2935;DHT22;2462;51.456;7.248;2022-08-21T04:31:28;18.00;99.90
2935;DHT22;2462;51.456;7.248;2022-08-21T04:33:56;18.00;99.90
2935;DHT22;2462;51.456;7.248;2022-08-21T04:36:22;18.00;99.90
2935;DHT22;2462;51.456;7.248;2022-08-21T04:38:48;18.00;99.90
2935;DHT22;2462;51.456;7.248;2022-08-21T04:41:14;18.00;99.90
2935;DHT22;2462;51.456;7.248;2022-08-21T04:43:39;18.00;99.90
2935;DHT22;2462;51.456;7.248;2022-08-21T04:46:05;17.90;99.90
2935;DHT22;2462;51.456;7.248;2022-08-21T04:48:32;17.90;99.90
2935;DHT22;2462;51.456;7.248;2022-08-21T04:51:05;17.90;99.90
2935;DHT22;2462;51.456;7.248;2022-08-21T04:56:14;17.90;99.90
2935;DHT22;2462;51.456;7.248;2022-08-21T04:58:41;17.90;99.90
2935;DHT22;2462;51.456;7.248;2022-08-21T05:01:14;17.90;99.90
2935;DHT22;2462;51.456;7.248;2022-08-21T05:03:42;17.90;99.90
2935;DHT22;2462;51.456;7.248;2022-08-21T05:06:10;17.80;99.90
2935;DHT22;2462;51.456;7.248;2022-08-21T05:08:38;17.80;99.90
2935;DHT22;2462;51.456;7.248;2022-08-21T05:11:05;17.80;99.90
2935;DHT22;2462;51.456;7.248;2022-08-21T05:13:31;17.80;99.90
2935;DHT22;2462;51.456;7.248;2022-08-21T05:15:57;17.80;99.90
2935;DHT22;2462;51.456;7.248;2022-08-21T05:18:24;17.80;99.90
2935;DHT22;2462;51.456;7.248;2022-08-21T05:23:17;17.80;99.90
2935;DHT22;2462;51.456;7.248;2022-08-21T05:25:43;17.80;99.90
2935;DHT22;2462;51.456;7.248;2022-08-21T05:28:09;17.90;99.90
2935;DHT22;2462;51.456;7.248;2022-08-21T05:30:36;17.90;99.90
2935;DHT22;2462;51.456;7.248;2022-08-21T05:33:03;17.90;99.90
2935;DHT22;2462;51.456;7.248;2022-08-21T05:35:30;17.90;99.90
2935;DHT22;2462;51.456;7.248;2022-08-21T05:37:56;17.90;99.90
2935;DHT22;2462;51.456;7.248;2022-08-21T05:40:22;17.90;99.90
2935;DHT22;2462;51.456;7.248;2022-08-21T05:42:48;17.90;99.90
2935;DHT22;2462;51.456;7.248;2022-08-21T05:45:14;17.90;99.90
2935;DHT22;2462;51.456;7.248;2022-08-21T05:47:39;17.90;99.90
2935;DHT22;2462;51.456;7.248;2022-08-21T05:50:05;17.90;99.90
2935;DHT22;2462;51.456;7.248;2022-08-21T05:52:31;17.90;99.90
2935;DHT22;2462;51.456;7.248;2022-08-21T05:54:57;17.90;99.90
2935;DHT22;2462;51.456;7.248;2022-08-21T05:57:22;17.90;99.90
2935;DHT22;2462;51.456;7.248;2022-08-21T05:59:49;17.90;99.90
2935;DHT22;2462;51.456;7.248;2022-08-21T06:02:18;17.90;99.90
2935;DHT22;2462;51.456;7.248;2022-08-21T06:04:44;17.90;99.90
2935;DHT22;2462;51.456;7.248;2022-08-21T06:07:10;17.90;99.90
2935;DHT22;2462;51.456;7.248;2022-08-21T06:09:36;18.00;99.90
2935;DHT22;2462;51.456;7.248;2022-08-21T06:12:07;18.00;99.90
2935;DHT22;2462;51.456;7.248;2022-08-21T06:14:34;18.00;99.90
2935;DHT22;2462;51.456;7.248;2022-08-21T06:17:05;18.00;99.90
2935;DHT22;2462;51.456;7.248;2022-08-21T06:19:31;18.00;99.90
2935;DHT22;2462;51.456;7.248;2022-08-21T06:21:57;18.00;99.90
2935;DHT22;2462;51.456;7.248;2022-08-21T06:24:22;18.00;99.90
2935;DHT22;2462;51.456;7.248;2022-08-21T06:26:48;18.00;99.90
2935;DHT22;2462;51.456;7.248;2022-08-21T06:29:14;18.10;99.90
2935;DHT22;2462;51.456;7.248;2022-08-21T06:31:42;18.10;99.90
2935;DHT22;2462;51.456;7.248;2022-08-21T06:34:08;18.10;99.90
2935;DHT22;2462;51.456;7.248;2022-08-21T06:36:33;18.10;99.90
2935;DHT22;2462;51.456;7.248;2022-08-21T06:38:59;18.10;99.90
2935;DHT22;2462;51.456;7.248;2022-08-21T06:41:25;18.10;99.90
2935;DHT22;2462;51.456;7.248;2022-08-21T06:43:51;18.10;99.90
2935;DHT22;2462;51.456;7.248;2022-08-21T06:46:16;18.10;99.90
2935;DHT22;2462;51.456;7.248;2022-08-21T06:48:42;18.10;99.90
2935;DHT22;2462;51.456;7.248;2022-08-21T06:51:07;18.20;99.90
2935;DHT22;2462;51.456;7.248;2022-08-21T06:53:33;18.20;99.90
2935;DHT22;2462;51.456;7.248;2022-08-21T06:55:59;18.20;99.90
2935;DHT22;2462;51.456;7.248;2022-08-21T06:58:25;18.20;99.90
2935;DHT22;2462;51.456;7.248;2022-08-21T07:00:51;18.30;99.90
2935;DHT22;2462;51.456;7.248;2022-08-21T07:03:26;18.30;99.90
2935;DHT22;2462;51.456;7.248;2022-08-21T07:05:53;18.30;99.90
2935;DHT22;2462;51.456;7.248;2022-08-21T07:08:19;18.40;99.90
2935;DHT22;2462;51.456;7.248;2022-08-21T07:10:46;18.40;99.90
2935;DHT22;2462;51.456;7.248;2022-08-21T07:13:12;18.40;99.90
2935;DHT22;2462;51.456;7.248;2022-08-21T07:15:38;18.40;99.90
2935;DHT22;2462;51.456;7.248;2022-08-21T07:18:04;18.50;99.90
2935;DHT22;2462;51.456;7.248;2022-08-21T07:20:31;18.50;99.90
2935;DHT22;2462;51.456;7.248;2022-08-21T07:23:00;18.50;99.90
2935;DHT22;2462;51.456;7.248;2022-08-21T07:25:26;18.50;99.90
2935;DHT22;2462;51.456;7.248;2022-08-21T07:27:52;18.60;99.90
2935;DHT22;2462;51.456;7.248;2022-08-21T07:30:18;18.60;99.90
2935;DHT22;2462;51.456;7.248;2022-08-21T07:32:44;18.60;99.90
2935;DHT22;2462;51.456;7.248;2022-08-21T07:35:10;18.60;99.90
2935;DHT22;2462;51.456;7.248;2022-08-21T07:37:36;18.70;99.90
2935;DHT22;2462;51.456;7.248;2022-08-21T07:40:02;18.70;99.90
2935;DHT22;2462;51.456;7.248;2022-08-21T07:42:28;18.70;99.90
2935;DHT22;2462;51.456;7.248;2022-08-21T07:44:54;18.80;99.90
2935;DHT22;2462;51.456;7.248;2022-08-21T07:47:20;18.80;99.90
2935;DHT22;2462;51.456;7.248;2022-08-21T07:49:46;18.80;99.90
2935;DHT22;2462;51.456;7.248;2022-08-21T07:52:11;18.90;99.90
2935;DHT22;2462;51.456;7.248;2022-08-21T07:54:37;19.00;99.90
2935;DHT22;2462;51.456;7.248;2022-08-21T07:57:03;19.00;99.90
2935;DHT22;2462;51.456;7.248;2022-08-21T07:59:28;19.00;99.90
2935;DHT22;2462;51.456;7.248;2022-08-21T08:01:54;19.00;99.90
2935;DHT22;2462;51.456;7.248;2022-08-21T08:04:20;19.00;99.90
2935;DHT22;2462;51.456;7.248;2022-08-21T08:06:45;19.10;99.90
2935;DHT22;2462;51.456;7.248;2022-08-21T08:09:11;19.10;99.90
2935;DHT22;2462;51.456;7.248;2022-08-21T08:11:39;19.10;99.90
2935;DHT22;2462;51.456;7.248;2022-08-21T08:14:06;19.20;99.90
2935;DHT22;2462;51.456;7.248;2022-08-21T08:16:31;19.20;99.90
2935;DHT22;2462;51.456;7.248;2022-08-21T08:18:57;19.20;99.90
2935;DHT22;2462;51.456;7.248;2022-08-21T08:21:23;19.20;99.90
2935;DHT22;2462;51.456;7.248;2022-08-21T08:23:49;19.20;99.90
2935;DHT22;2462;51.456;7.248;2022-08-21T08:26:14;19.30;99.90
2935;DHT22;2462;51.456;7.248;2022-08-21T08:28:41;19.30;99.90
2935;DHT22;2462;51.456;7.248;2022-08-21T08:31:06;19.30;99.90
2935;DHT22;2462;51.456;7.248;2022-08-21T08:33:32;19.30;99.90
2935;DHT22;2462;51.456;7.248;2022-08-21T08:35:57;19.40;99.90
2935;DHT22;2462;51.456;7.248;2022-08-21T08:38:27;19.40;99.90
2935;DHT22;2462;51.456;7.248;2022-08-21T08:41:18;19.40;99.90
2935;DHT22;2462;51.456;7.248;2022-08-21T08:43:52;19.40;99.90
2935;DHT22;2462;51.456;7.248;2022-08-21T08:46:44;19.40;99.90
2935;DHT22;2462;51.456;7.248;2022-08-21T08:54:12;19.50;99.90
2935;DHT22;2462;51.456;7.248;2022-08-21T08:56:40;19.50;99.90
2935;DHT22;2462;51.456;7.248;2022-08-21T08:59:21;19.60;99.90
2935;DHT22;2462;51.456;7.248;2022-08-21T09:01:48;19.60;99.90
2935;DHT22;2462;51.456;7.248;2022-08-21T09:04:20;19.60;99.90
2935;DHT22;2462;51.456;7.248;2022-08-21T09:07:13;19.70;99.90
2935;DHT22;2462;51.456;7.248;2022-08-21T09:12:38;19.80;99.90
2935;DHT22;2462;51.456;7.248;2022-08-21T09:15:32;19.80;99.90
2935;DHT22;2462;51.456;7.248;2022-08-21T09:24:18;19.90;99.90
2935;DHT22;2462;51.456;7.248;2022-08-21T09:27:10;20.00;99.90
2935;DHT22;2462;51.456;7.248;2022-08-21T09:29:42;20.00;99.90
2935;DHT22;2462;51.456;7.248;2022-08-21T09:32:29;20.00;99.90
2935;DHT22;2462;51.456;7.248;2022-08-21T09:37:52;20.00;99.90
2935;DHT22;2462;51.456;7.248;2022-08-21T09:40:41;20.10;99.90
2935;DHT22;2462;51.456;7.248;2022-08-21T09:43:17;20.10;99.90
2935;DHT22;2462;51.456;7.248;2022-08-21T09:45:44;20.20;99.90
2935;DHT22;2462;51.456;7.248;2022-08-21T09:48:12;20.20;99.90
2935;DHT22;2462;51.456;7.248;2022-08-21T09:50:39;20.20;99.90
2935;DHT22;2462;51.456;7.248;2022-08-21T09:53:13;20.30;99.90
2935;DHT22;2462;51.456;7.248;2022-08-21T09:55:49;20.20;99.90
2935;DHT22;2462;51.456;7.248;2022-08-21T09:58:35;20.20;99.90
2935;DHT22;2462;51.456;7.248;2022-08-21T10:01:05;20.30;99.90
2935;DHT22;2462;51.456;7.248;2022-08-21T10:03:31;20.30;99.90
2935;DHT22;2462;51.456;7.248;2022-08-21T10:05:57;20.40;99.90
2935;DHT22;2462;51.456;7.248;2022-08-21T10:08:26;20.40;99.90
2935;DHT22;2462;51.456;7.248;2022-08-21T10:11:08;20.40;99.90
2935;DHT22;2462;51.456;7.248;2022-08-21T10:16:10;20.50;99.90
2935;DHT22;2462;51.456;7.248;2022-08-21T10:21:27;20.50;99.90
2935;DHT22;2462;51.456;7.248;2022-08-21T10:26:39;20.60;99.90
2935;DHT22;2462;51.456;7.248;2022-08-21T10:40:26;20.70;99.90
2935;DHT22;2462;51.456;7.248;2022-08-21T10:46:08;20.80;99.90
2935;DHT22;2462;51.456;7.248;2022-08-21T10:48:42;20.80;99.90
2935;DHT22;2462;51.456;7.248;2022-08-21T10:56:30;20.90;99.90
2935;DHT22;2462;51.456;7.248;2022-08-21T11:04:32;21.00;99.90
2935;DHT22;2462;51.456;7.248;2022-08-21T11:07:03;21.00;99.90
2935;DHT22;2462;51.456;7.248;2022-08-21T11:09:31;21.00;99.90
2935;DHT22;2462;51.456;7.248;2022-08-21T11:12:06;21.10;99.90
2935;DHT22;2462;51.456;7.248;2022-08-21T11:15:07;21.10;99.90
2935;DHT22;2462;51.456;7.248;2022-08-21T11:18:07;21.20;99.90
2935;DHT22;2462;51.456;7.248;2022-08-21T11:20:42;21.20;99.90
2935;DHT22;2462;51.456;7.248;2022-08-21T11:26:13;21.30;99.90
2935;DHT22;2462;51.456;7.248;2022-08-21T11:28:50;21.30;99.90
2935;DHT22;2462;51.456;7.248;2022-08-21T11:31:24;21.30;99.90
2935;DHT22;2462;51.456;7.248;2022-08-21T11:34:13;21.30;99.90
2935;DHT22;2462;51.456;7.248;2022-08-21T11:37:06;21.30;99.90
2935;DHT22;2462;51.456;7.248;2022-08-21T11:39:38;21.40;99.90
2935;DHT22;2462;51.456;7.248;2022-08-21T11:47:52;21.50;99.90
2935;DHT22;2462;51.456;7.248;2022-08-21T11:50:24;21.60;99.90
2935;DHT22;2462;51.456;7.248;2022-08-21T11:55:46;21.60;99.90
2935;DHT22;2462;51.456;7.248;2022-08-21T11:58:38;21.60;99.90
2935;DHT22;2462;51.456;7.248;2022-08-21T12:01:08;21.70;99.90
2935;DHT22;2462;51.456;7.248;2022-08-21T12:03:38;21.70;99.90
2935;DHT22;2462;51.456;7.248;2022-08-21T12:06:09;21.70;99.90
2935;DHT22;2462;51.456;7.248;2022-08-21T12:08:43;21.80;99.90
2935;DHT22;2462;51.456;7.248;2022-08-21T12:19:13;21.80;99.90
2935;DHT22;2462;51.456;7.248;2022-08-21T12:26:57;21.90;99.90
2935;DHT22;2462;51.456;7.248;2022-08-21T12:29:27;22.00;99.90
2935;DHT22;2462;51.456;7.248;2022-08-21T12:31:57;22.00;99.90
2935;DHT22;2462;51.456;7.248;2022-08-21T12:34:28;22.00;99.90
2935;DHT22;2462;51.456;7.248;2022-08-21T12:37:20;22.10;99.90
2935;DHT22;2462;51.456;7.248;2022-08-21T12:39:49;22.10;99.90
2935;DHT22;2462;51.456;7.248;2022-08-21T12:42:23;22.20;99.90
2935;DHT22;2462;51.456;7.248;2022-08-21T12:45:00;22.20;99.90
2935;DHT22;2462;51.456;7.248;2022-08-21T12:47:56;22.20;99.90
2935;DHT22;2462;51.456;7.248;2022-08-21T12:50:37;22.20;99.90
2935;DHT22;2462;51.456;7.248;2022-08-21T12:53:26;22.20;99.90
2935;DHT22;2462;51.456;7.248;2022-08-21T12:55:53;22.20;99.90
2935;DHT22;2462;51.456;7.248;2022-08-21T12:58:25;22.30;99.90
2935;DHT22;2462;51.456;7.248;2022-08-21T13:00:59;22.20;99.90
2935;DHT22;2462;51.456;7.248;2022-08-21T13:03:29;22.30;99.90
2935;DHT22;2462;51.456;7.248;2022-08-21T13:05:57;22.30;99.90
2935;DHT22;2462;51.456;7.248;2022-08-21T13:08:25;22.30;99.90
2935;DHT22;2462;51.456;7.248;2022-08-21T13:10:59;22.30;99.90
2935;DHT22;2462;51.456;7.248;2022-08-21T13:13:27;22.20;99.90
2935;DHT22;2462;51.456;7.248;2022-08-21T13:16:03;22.20;99.90
2935;DHT22;2462;51.456;7.248;2022-08-21T13:18:33;22.20;99.90
2935;DHT22;2462;51.456;7.248;2022-08-21T13:21:05;22.20;99.90
2935;DHT22;2462;51.456;7.248;2022-08-21T13:23:31;22.20;99.90
2935;DHT22;2462;51.456;7.248;2022-08-21T13:25:57;22.30;99.90
2935;DHT22;2462;51.456;7.248;2022-08-21T13:28:24;22.30;99.90
2935;DHT22;2462;51.456;7.248;2022-08-21T13:30:58;22.20;99.90
2935;DHT22;2462;51.456;7.248;2022-08-21T13:33:26;22.30;99.90
2935;DHT22;2462;51.456;7.248;2022-08-21T13:38:25;22.50;99.90
2935;DHT22;2462;51.456;7.248;2022-08-21T13:40:55;22.50;99.90
2935;DHT22;2462;51.456;7.248;2022-08-21T13:43:27;22.50;99.90
2935;DHT22;2462;51.456;7.248;2022-08-21T13:45:55;22.50;99.90
2935;DHT22;2462;51.456;7.248;2022-08-21T13:48:26;22.60;99.90
2935;DHT22;2462;51.456;7.248;2022-08-21T13:50:54;22.60;99.90
2935;DHT22;2462;51.456;7.248;2022-08-21T13:56:25;22.50;99.90
2935;DHT22;2462;51.456;7.248;2022-08-21T13:58:52;22.50;99.90
2935;DHT22;2462;51.456;7.248;2022-08-21T14:01:29;22.60;99.90
2935;DHT22;2462;51.456;7.248;2022-08-21T14:04:36;22.60;99.90
2935;DHT22;2462;51.456;7.248;2022-08-21T14:06:54;22.60;99.90
2935;DHT22;2462;51.456;7.248;2022-08-21T14:09:32;22.70;99.90
2935;DHT22;2462;51.456;7.248;2022-08-21T14:12:02;22.70;99.90
2935;DHT22;2462;51.456;7.248;2022-08-21T14:14:32;22.70;99.90
2935;DHT22;2462;51.456;7.248;2022-08-21T14:17:14;22.70;99.90
2935;DHT22;2462;51.456;7.248;2022-08-21T14:19:48;22.80;99.90
2935;DHT22;2462;51.456;7.248;2022-08-21T14:22:42;22.90;99.90
2935;DHT22;2462;51.456;7.248;2022-08-21T14:28:30;23.10;99.90
2935;DHT22;2462;51.456;7.248;2022-08-21T14:30:33;23.10;99.90
2935;DHT22;2462;51.456;7.248;2022-08-21T14:33:00;23.20;99.90
2935;DHT22;2462;51.456;7.248;2022-08-21T14:35:26;23.10;99.90
2935;DHT22;2462;51.456;7.248;2022-08-21T14:37:52;23.10;99.90
2935;DHT22;2462;51.456;7.248;2022-08-21T14:40:21;23.00;99.90
2935;DHT22;2462;51.456;7.248;2022-08-21T14:42:47;23.00;99.90
2935;DHT22;2462;51.456;7.248;2022-08-21T14:45:17;23.00;99.90
2935;DHT22;2462;51.456;7.248;2022-08-21T14:47:43;22.90;99.90
2935;DHT22;2462;51.456;7.248;2022-08-21T14:50:09;22.90;99.90
2935;DHT22;2462;51.456;7.248;2022-08-21T14:52:35;22.90;99.90
2935;DHT22;2462;51.456;7.248;2022-08-21T14:55:02;22.90;99.90
2935;DHT22;2462;51.456;7.248;2022-08-21T14:57:30;22.80;99.90
2935;DHT22;2462;51.456;7.248;2022-08-21T14:59:56;22.80;99.90
2935;DHT22;2462;51.456;7.248;2022-08-21T15:02:22;22.80;99.90
2935;DHT22;2462;51.456;7.248;2022-08-21T15:04:47;22.80;99.90
2935;DHT22;2462;51.456;7.248;2022-08-21T15:07:13;22.80;99.90
2935;DHT22;2462;51.456;7.248;2022-08-21T15:09:38;22.80;99.90
2935;DHT22;2462;51.456;7.248;2022-08-21T15:12:06;22.80;99.90
2935;DHT22;2462;51.456;7.248;2022-08-21T15:14:34;22.80;99.90
2935;DHT22;2462;51.456;7.248;2022-08-21T15:17:02;22.80;99.90
2935;DHT22;2462;51.456;7.248;2022-08-21T15:19:29;22.80;99.90
2935;DHT22;2462;51.456;7.248;2022-08-21T15:21:55;22.70;99.90
2935;DHT22;2462;51.456;7.248;2022-08-21T15:24:21;22.80;99.90
2935;DHT22;2462;51.456;7.248;2022-08-21T15:26:46;22.80;99.90
2935;DHT22;2462;51.456;7.248;2022-08-21T15:29:12;22.80;99.90
2935;DHT22;2462;51.456;7.248;2022-08-21T15:34:18;22.80;99.90
2935;DHT22;2462;51.456;7.248;2022-08-21T15:36:44;22.80;99.90
2935;DHT22;2462;51.456;7.248;2022-08-21T15:39:09;22.80;99.90
2935;DHT22;2462;51.456;7.248;2022-08-21T15:41:35;22.80;99.90
2935;DHT22;2462;51.456;7.248;2022-08-21T15:44:00;22.90;99.90
2935;DHT22;2462;51.456;7.248;2022-08-21T15:46:26;22.90;99.90
2935;DHT22;2462;51.456;7.248;2022-08-21T15:48:51;22.90;99.90
2935;DHT22;2462;51.456;7.248;2022-08-21T15:51:17;22.90;99.90
2935;DHT22;2462;51.456;7.248;2022-08-21T15:53:44;22.90;99.90
2935;DHT22;2462;51.456;7.248;2022-08-21T15:56:33;22.80;99.90
2935;DHT22;2462;51.456;7.248;2022-08-21T15:59:05;22.80;99.90
2935;DHT22;2462;51.456;7.248;2022-08-21T16:01:32;22.80;99.90
2935;DHT22;2462;51.456;7.248;2022-08-21T16:03:58;22.80;99.90
2935;DHT22;2462;51.456;7.248;2022-08-21T16:06:23;22.80;99.90
2935;DHT22;2462;51.456;7.248;2022-08-21T16:08:49;22.80;99.90
2935;DHT22;2462;51.456;7.248;2022-08-21T16:11:15;22.70;99.90
2935;DHT22;2462;51.456;7.248;2022-08-21T16:13:44;22.70;99.90
2935;DHT22;2462;51.456;7.248;2022-08-21T16:16:11;22.70;99.90
2935;DHT22;2462;51.456;7.248;2022-08-21T16:18:38;22.70;99.90
2935;DHT22;2462;51.456;7.248;2022-08-21T16:21:04;22.70;99.90
2935;DHT22;2462;51.456;7.248;2022-08-21T16:23:30;22.70;99.90
2935;DHT22;2462;51.456;7.248;2022-08-21T16:25:58;22.70;99.90
2935;DHT22;2462;51.456;7.248;2022-08-21T16:28:24;22.70;99.90
2935;DHT22;2462;51.456;7.248;2022-08-21T16:30:50;22.70;99.90
2935;DHT22;2462;51.456;7.248;2022-08-21T16:33:43;22.70;99.90
2935;DHT22;2462;51.456;7.248;2022-08-21T16:36:11;22.70;99.90
2935;DHT22;2462;51.456;7.248;2022-08-21T16:38:37;22.70;99.90
2935;DHT22;2462;51.456;7.248;2022-08-21T16:41:08;22.70;99.90
2935;DHT22;2462;51.456;7.248;2022-08-21T16:43:35;22.70;99.90
2935;DHT22;2462;51.456;7.248;2022-08-21T16:46:02;22.70;99.90
2935;DHT22;2462;51.456;7.248;2022-08-21T16:48:27;22.70;99.90
2935;DHT22;2462;51.456;7.248;2022-08-21T16:50:56;22.70;99.90
2935;DHT22;2462;51.456;7.248;2022-08-21T16:53:22;22.60;99.90
2935;DHT22;2462;51.456;7.248;2022-08-21T16:55:50;22.60;99.90
2935;DHT22;2462;51.456;7.248;2022-08-21T16:58:27;22.60;99.90
2935;DHT22;2462;51.456;7.248;2022-08-21T17:00:53;22.60;99.90
2935;DHT22;2462;51.456;7.248;2022-08-21T17:03:24;22.60;99.90
2935;DHT22;2462;51.456;7.248;2022-08-21T17:05:51;22.60;99.90
2935;DHT22;2462;51.456;7.248;2022-08-21T17:08:16;22.50;99.90
2935;DHT22;2462;51.456;7.248;2022-08-21T17:10:46;22.50;99.90
2935;DHT22;2462;51.456;7.248;2022-08-21T17:13:11;22.50;99.90
2935;DHT22;2462;51.456;7.248;2022-08-21T17:15:37;22.50;99.90
2935;DHT22;2462;51.456;7.248;2022-08-21T17:18:04;22.50;99.90
2935;DHT22;2462;51.456;7.248;2022-08-21T17:20:32;22.50;99.90
2935;DHT22;2462;51.456;7.248;2022-08-21T17:22:58;22.40;99.90
2935;DHT22;2462;51.456;7.248;2022-08-21T17:25:24;22.40;99.90
2935;DHT22;2462;51.456;7.248;2022-08-21T17:27:50;22.40;99.90
2935;DHT22;2462;51.456;7.248;2022-08-21T17:30:17;22.40;99.90
2935;DHT22;2462;51.456;7.248;2022-08-21T17:32:44;22.40;99.90
2935;DHT22;2462;51.456;7.248;2022-08-21T17:35:11;22.40;99.90
2935;DHT22;2462;51.456;7.248;2022-08-21T17:37:37;22.30;99.90
2935;DHT22;2462;51.456;7.248;2022-08-21T17:40:04;22.30;99.90
2935;DHT22;2462;51.456;7.248;2022-08-21T17:42:31;22.30;99.90
2935;DHT22;2462;51.456;7.248;2022-08-21T17:44:56;22.30;99.90